createdAt,value
2018-04-13T00:00:51.690Z,0
2018-04-13T00:02:06.367Z,0
2018-04-13T00:02:51.736Z,0
2018-04-13T00:03:51.763Z,0
2018-04-13T00:05:06.432Z,0
2018-04-13T00:05:51.541Z,0
2018-04-13T00:06:51.830Z,0
2018-04-13T00:07:51.849Z,0
2018-04-13T00:08:51.876Z,0
2018-04-13T00:10:06.611Z,0
2018-04-13T00:10:51.658Z,0
2018-04-13T00:11:51.938Z,0
2018-04-13T00:12:51.962Z,0
2018-04-13T00:13:51.991Z,0
2018-04-13T00:14:52.009Z,0
2018-04-13T00:15:52.033Z,0
2018-04-13T00:16:52.051Z,0
2018-04-13T00:17:52.085Z,0
2018-04-13T00:18:52.106Z,0
2018-04-13T00:19:52.135Z,0
2018-04-13T00:20:52.146Z,0
2018-04-13T00:21:52.177Z,0
2018-04-13T00:23:51.965Z,0
2018-04-13T00:25:52.270Z,0
2018-04-13T00:26:52.287Z,0
2018-04-13T00:28:06.709Z,0
2018-04-13T00:28:52.337Z,0
2018-04-13T00:29:52.365Z,0
2018-04-13T00:31:07.040Z,0
2018-04-13T00:31:52.143Z,0
2018-04-13T00:33:07.083Z,0
2018-04-13T00:34:06.847Z,0
2018-04-13T00:34:52.480Z,0
2018-04-13T00:35:52.234Z,0
2018-04-13T00:36:52.266Z,0
2018-04-13T00:38:52.047Z,0
2018-04-13T00:40:07.244Z,0
2018-04-13T00:40:52.612Z,0
2018-04-13T00:42:21.949Z,0
2018-04-13T00:42:52.136Z,0
2018-04-13T00:44:52.702Z,0
2018-04-13T00:45:52.464Z,0
2018-04-13T00:46:52.745Z,0
2018-04-13T00:47:52.773Z,0
2018-04-13T00:49:07.451Z,0
2018-04-13T00:49:52.817Z,0
2018-04-13T00:50:52.582Z,0
2018-04-13T00:51:52.870Z,0
2018-04-13T00:52:52.884Z,0
2018-04-13T00:53:52.904Z,0
2018-04-13T00:54:52.933Z,0
2018-04-13T00:55:52.957Z,0
2018-04-13T00:56:52.980Z,0
2018-04-13T00:58:07.667Z,0
2018-04-13T00:58:53.029Z,0
2018-04-13T00:59:52.528Z,0
2018-04-13T01:00:53.067Z,0
2018-04-13T01:01:53.090Z,0
2018-04-13T01:04:07.810Z,0
2018-04-13T01:04:52.902Z,0
2018-04-13T01:06:07.584Z,0
2018-04-13T01:06:53.207Z,0
2018-04-13T01:07:53.226Z,0
2018-04-13T01:08:53.340Z,0
2018-04-13T01:09:53.013Z,0
2018-04-13T01:10:53.296Z,0
2018-04-13T01:11:53.323Z,0
2018-04-13T01:12:53.345Z,0
2018-04-13T01:14:22.684Z,0
2018-04-13T01:14:52.877Z,0
2018-04-13T01:15:52.894Z,0
2018-04-13T01:16:53.445Z,0
2018-04-13T01:17:53.460Z,0
2018-04-13T01:18:53.219Z,0
2018-04-13T01:19:53.507Z,0
2018-04-13T01:20:53.527Z,0
2018-04-13T01:21:53.547Z,0
2018-04-13T01:22:53.571Z,0
2018-04-13T01:23:53.339Z,0
2018-04-13T01:24:53.359Z,0
2018-04-13T01:25:53.647Z,0
2018-04-13T01:26:53.670Z,0
2018-04-13T01:27:53.692Z,0
2018-04-13T01:28:53.707Z,0
2018-04-13T01:30:08.391Z,0
2018-04-13T01:30:53.760Z,0
2018-04-13T01:32:53.801Z,0
2018-04-13T01:34:53.851Z,0
2018-04-13T01:35:53.870Z,0
2018-04-13T01:36:53.633Z,0
2018-04-13T01:37:53.398Z,0
2018-04-13T01:38:53.422Z,0
2018-04-13T01:39:53.964Z,0
2018-04-13T01:40:53.986Z,0
2018-04-13T01:41:54.008Z,0
2018-04-13T01:42:54.032Z,0
2018-04-13T01:44:08.715Z,0
2018-04-13T01:45:23.397Z,0
2018-04-13T01:45:54.103Z,0
2018-04-13T01:46:54.142Z,0
2018-04-13T01:47:54.145Z,0
2018-04-13T01:48:54.169Z,0
2018-04-13T01:49:54.191Z,0
2018-04-13T01:50:54.291Z,0
2018-04-13T01:51:54.246Z,0
2018-04-13T01:52:54.262Z,0
2018-04-13T01:53:54.284Z,0
2018-04-13T01:54:54.049Z,0
2018-04-13T01:56:08.737Z,0
2018-04-13T01:56:54.103Z,0
2018-04-13T01:57:54.377Z,0
2018-04-13T01:58:54.401Z,0
2018-04-13T02:00:54.553Z,0
2018-04-13T02:01:54.212Z,0
2018-04-13T02:02:54.497Z,0
2018-04-13T02:03:54.258Z,0
2018-04-13T02:04:54.279Z,0
2018-04-13T02:05:54.048Z,0
2018-04-13T02:06:54.323Z,0
2018-04-13T02:08:09.266Z,0
2018-04-13T02:09:09.289Z,0
2018-04-13T02:09:54.397Z,0
2018-04-13T02:11:09.079Z,0
2018-04-13T02:12:09.361Z,0
2018-04-13T02:12:54.717Z,0
2018-04-13T02:13:54.743Z,0
2018-04-13T02:14:54.766Z,0
2018-04-13T02:15:54.788Z,0
2018-04-13T02:17:09.212Z,0
2018-04-13T02:17:54.844Z,0
2018-04-13T02:18:54.859Z,0
2018-04-13T02:19:54.885Z,0
2018-04-13T02:20:54.928Z,0
2018-04-13T02:21:54.927Z,0
2018-04-13T02:22:54.952Z,0
2018-04-13T02:23:54.976Z,0
2018-04-13T02:25:09.658Z,0
2018-04-13T02:25:54.760Z,0
2018-04-13T02:26:55.044Z,0
2018-04-13T02:27:55.067Z,0
2018-04-13T02:28:55.099Z,0
2018-04-13T02:29:55.115Z,0
2018-04-13T02:30:55.157Z,0
2018-04-13T02:31:55.160Z,0
2018-04-13T02:33:09.846Z,0
2018-04-13T02:33:55.205Z,0
2018-04-13T02:34:55.225Z,0
2018-04-13T02:36:55.014Z,0
2018-04-13T02:37:54.777Z,0
2018-04-13T02:38:55.318Z,0
2018-04-13T02:40:09.740Z,0
2018-04-13T02:40:55.104Z,0
2018-04-13T02:43:09.805Z,0
2018-04-13T02:43:55.436Z,0
2018-04-13T02:44:55.195Z,0
2018-04-13T02:45:55.473Z,0
2018-04-13T02:46:55.507Z,0
2018-04-13T02:47:55.264Z,0
2018-04-13T02:49:09.968Z,0
2018-04-13T02:49:55.565Z,0
2018-04-13T02:50:55.591Z,0
2018-04-13T02:53:10.038Z,0
2018-04-13T02:53:55.149Z,0
2018-04-13T02:54:55.163Z,0
2018-04-13T02:56:10.373Z,0
2018-04-13T02:56:55.732Z,0
2018-04-13T02:57:55.489Z,0
2018-04-13T02:58:55.524Z,0
2018-04-13T02:59:55.275Z,0
2018-04-13T03:00:55.826Z,0
2018-04-13T03:01:55.329Z,0
2018-04-13T03:02:55.097Z,0
2018-04-13T03:03:55.889Z,0
2018-04-13T03:05:25.225Z,0
2018-04-13T03:05:55.933Z,0
2018-04-13T03:07:55.991Z,0
2018-04-13T03:09:55.775Z,0
2018-04-13T03:10:55.785Z,0
2018-04-13T03:13:10.488Z,0
2018-04-13T03:13:56.113Z,0
2018-04-13T03:14:56.136Z,0
2018-04-13T03:15:55.646Z,0
2018-04-13T03:16:55.927Z,0
2018-04-13T03:17:56.203Z,0
2018-04-13T03:19:10.966Z,0
2018-04-13T03:20:25.568Z,0
2018-04-13T03:20:55.757Z,0
2018-04-13T03:21:56.292Z,0
2018-04-13T03:22:56.319Z,0
2018-04-13T03:23:56.386Z,0
2018-04-13T03:24:56.367Z,0
2018-04-13T03:25:56.487Z,0
2018-04-13T03:26:56.155Z,0
2018-04-13T03:27:56.434Z,0
2018-04-13T03:28:56.196Z,0
2018-04-13T03:29:56.222Z,0
2018-04-13T03:30:56.240Z,0
2018-04-13T03:31:56.266Z,0
2018-04-13T03:33:56.308Z,0
2018-04-13T03:35:11.248Z,0
2018-04-13T03:36:11.018Z,0
2018-04-13T03:36:56.639Z,0
2018-04-13T03:38:56.677Z,0
2018-04-13T03:39:56.705Z,0
2018-04-13T03:40:56.749Z,0
2018-04-13T03:41:56.756Z,0
2018-04-13T03:42:56.255Z,0
2018-04-13T03:44:11.452Z,0
2018-04-13T03:44:56.556Z,0
2018-04-13T03:46:11.502Z,0
2018-04-13T03:46:56.600Z,0
2018-04-13T03:47:56.365Z,0
2018-04-13T03:48:56.916Z,4
2018-04-13T03:50:11.691Z,4
2018-04-13T03:51:11.355Z,4
2018-04-13T03:52:11.643Z,4
2018-04-13T03:52:56.996Z,0
2018-04-13T03:53:57.024Z,0
2018-04-13T03:54:57.046Z,4
2018-04-13T03:56:56.829Z,4
2018-04-13T03:57:56.855Z,8
2018-04-13T03:58:57.141Z,8
2018-04-13T03:59:56.898Z,8
2018-04-13T04:00:56.919Z,8
2018-04-13T04:01:57.211Z,12
2018-04-13T04:03:11.888Z,12
2018-04-13T04:03:57.247Z,16
2018-04-13T04:04:57.015Z,16
2018-04-13T04:05:57.292Z,16
2018-04-13T04:08:11.738Z,28
2018-04-13T04:08:57.359Z,32
2018-04-13T04:10:57.466Z,52
2018-04-13T04:11:56.910Z,60
2018-04-13T04:12:57.452Z,64
2018-04-13T04:13:57.512Z,68
2018-04-13T04:15:11.900Z,76
2018-04-13T04:16:12.177Z,88
2018-04-13T04:17:12.198Z,96
2018-04-13T04:17:57.565Z,100
2018-04-13T04:18:57.585Z,108
2018-04-13T04:19:57.609Z,116
2018-04-13T04:20:57.115Z,120
2018-04-13T04:21:57.404Z,128
2018-04-13T04:22:57.678Z,140
2018-04-13T04:24:12.502Z,148
2018-04-13T04:25:57.747Z,176
2018-04-13T04:26:57.782Z,204
2018-04-13T04:27:57.789Z,240
2018-04-13T04:28:57.816Z,292
2018-04-13T04:29:57.839Z,360
2018-04-13T04:30:57.344Z,424
2018-04-13T04:31:57.624Z,480
2018-04-13T04:32:57.903Z,528
2018-04-13T04:33:57.925Z,568
2018-04-13T04:34:57.946Z,608
2018-04-13T04:35:57.974Z,652
2018-04-13T04:36:58.005Z,688
2018-04-13T04:37:58.015Z,720
2018-04-13T04:40:12.474Z,724
2018-04-13T04:40:57.909Z,704
2018-04-13T04:41:58.107Z,680
2018-04-13T04:42:58.130Z,680
2018-04-13T04:43:58.151Z,708
2018-04-13T04:45:12.839Z,796
2018-04-13T04:45:58.197Z,836
2018-04-13T04:46:58.225Z,872
2018-04-13T04:47:58.247Z,896
2018-04-13T04:48:58.280Z,896
2018-04-13T04:50:58.315Z,820
2018-04-13T04:51:58.339Z,820
2018-04-13T04:52:58.110Z,832
2018-04-13T04:53:58.123Z,840
2018-04-13T04:55:12.803Z,832
2018-04-13T04:56:13.095Z,852
2018-04-13T04:56:58.449Z,896
2018-04-13T04:57:58.480Z,972
2018-04-13T04:58:58.503Z,1016
2018-04-13T04:59:58.521Z,1052
2018-04-13T05:00:58.281Z,1104
2018-04-13T05:01:58.569Z,1260
2018-04-13T05:02:58.329Z,1444
2018-04-13T05:03:58.609Z,1504
2018-04-13T05:05:13.034Z,1440
2018-04-13T05:05:58.755Z,1380
2018-04-13T05:06:58.688Z,1304
2018-04-13T05:07:58.706Z,1208
2018-04-13T05:08:58.475Z,1084
2018-04-13T05:09:58.229Z,960
2018-04-13T05:10:58.774Z,880
2018-04-13T05:11:58.878Z,836
2018-04-13T05:12:58.813Z,828
2018-04-13T05:13:58.845Z,812
2018-04-13T05:14:58.865Z,784
2018-04-13T05:15:58.887Z,728
2018-04-13T05:17:13.567Z,628
2018-04-13T05:18:13.332Z,568
2018-04-13T05:19:13.352Z,528
2018-04-13T05:19:58.716Z,504
2018-04-13T05:21:13.413Z,472
2018-04-13T05:21:58.764Z,448
2018-04-13T05:22:59.039Z,432
2018-04-13T05:23:59.072Z,440
2018-04-13T05:25:13.748Z,432
2018-04-13T05:25:58.851Z,436
2018-04-13T05:27:28.453Z,504
2018-04-13T05:28:59.183Z,624
2018-04-13T05:29:59.209Z,704
2018-04-13T05:30:59.285Z,756
2018-04-13T05:32:13.917Z,760
2018-04-13T05:32:59.287Z,740
2018-04-13T05:33:59.293Z,684
2018-04-13T05:34:59.319Z,672
2018-04-13T05:35:59.340Z,680
2018-04-13T05:36:58.847Z,712
2018-04-13T05:37:59.384Z,780
2018-04-13T05:38:59.414Z,848
2018-04-13T05:41:14.124Z,1004
2018-04-13T05:41:59.223Z,1080
2018-04-13T05:43:13.906Z,1208
2018-04-13T05:43:59.521Z,1260
2018-04-13T05:44:59.547Z,1308
2018-04-13T05:45:59.600Z,1400
2018-04-13T05:46:59.342Z,1524
2018-04-13T05:47:59.616Z,1624
2018-04-13T05:48:59.737Z,1612
2018-04-13T05:49:59.670Z,1572
2018-04-13T05:50:59.681Z,1612
2018-04-13T05:51:59.457Z,1704
2018-04-13T05:53:14.134Z,1852
2018-04-13T05:53:59.492Z,1932
2018-04-13T05:54:59.778Z,2028
2018-04-13T05:55:59.846Z,2136
2018-04-13T05:56:59.563Z,2284
2018-04-13T05:58:14.501Z,2496
2018-04-13T05:59:14.309Z,2584
2018-04-13T05:59:59.628Z,2584
2018-04-13T06:00:59.649Z,2692
2018-04-13T06:01:59.676Z,2960
2018-04-13T06:02:59.955Z,3052
2018-04-13T06:03:59.725Z,2724
2018-04-13T06:04:59.587Z,2264
2018-04-13T06:06:00.053Z,1948
2018-04-13T06:07:14.713Z,1796
2018-04-13T06:08:00.068Z,1796
2018-04-13T06:09:00.094Z,1880
2018-04-13T06:09:59.860Z,1944
2018-04-13T06:11:59.903Z,1900
2018-04-13T06:13:00.188Z,1832
2018-04-13T06:15:14.630Z,1716
2018-04-13T06:16:00.254Z,1748
2018-04-13T06:17:00.284Z,1860
2018-04-13T06:18:00.303Z,2008
2018-04-13T06:19:00.535Z,2152
2018-04-13T06:20:00.087Z,2364
2018-04-13T06:21:00.110Z,2660
2018-04-13T06:22:00.392Z,2752
2018-04-13T06:23:15.075Z,2492
2018-04-13T06:24:00.438Z,2460
2018-04-13T06:25:00.205Z,2708
2018-04-13T06:26:00.489Z,3108
2018-04-13T06:28:15.190Z,2840
2018-04-13T06:29:00.297Z,2708
2018-04-13T06:30:15.262Z,2876
2018-04-13T06:31:00.599Z,2856
2018-04-13T06:32:00.108Z,2808
2018-04-13T06:33:00.649Z,2840
2018-04-13T06:34:00.673Z,2848
2018-04-13T06:35:00.697Z,2516
2018-04-13T06:36:00.714Z,2164
2018-04-13T06:37:02.296Z,1948
2018-04-13T06:38:15.420Z,1692
2018-04-13T06:39:00.525Z,1512
2018-04-13T06:40:00.551Z,1256
2018-04-13T06:41:00.572Z,1084
2018-04-13T06:42:00.860Z,1008
2018-04-13T06:43:00.875Z,1016
2018-04-13T06:44:00.904Z,1064
2018-04-13T06:45:00.667Z,1040
2018-04-13T06:46:00.688Z,948
2018-04-13T06:47:00.723Z,832
2018-04-13T06:48:00.994Z,772
2018-04-13T06:49:00.769Z,756
2018-04-13T06:50:01.039Z,796
2018-04-13T06:51:01.074Z,904
2018-04-13T06:52:01.092Z,1052
2018-04-13T06:53:15.769Z,1260
2018-04-13T06:54:15.794Z,1424
2018-04-13T06:55:01.168Z,1560
2018-04-13T06:56:15.578Z,1784
2018-04-13T06:57:01.201Z,1960
2018-04-13T06:58:01.235Z,2192
2018-04-13T06:59:15.907Z,2460
2018-04-13T07:00:01.010Z,2580
2018-04-13T07:02:15.717Z,2468
2018-04-13T07:03:01.340Z,2404
2018-04-13T07:04:16.039Z,2456
2018-04-13T07:05:01.389Z,2464
2018-04-13T07:06:01.416Z,2368
2018-04-13T07:07:01.171Z,2396
2018-04-13T07:08:01.455Z,2500
2018-04-13T07:09:01.476Z,2724
2018-04-13T07:10:00.990Z,2980
2018-04-13T07:11:01.005Z,3016
2018-04-13T07:12:01.287Z,2908
2018-04-13T07:13:16.242Z,2688
2018-04-13T07:14:16.252Z,2412
2018-04-13T07:15:01.361Z,2236
2018-04-13T07:16:01.638Z,2080
2018-04-13T07:17:01.400Z,1972
2018-04-13T07:18:16.352Z,1920
2018-04-13T07:19:16.242Z,1880
2018-04-13T07:20:01.738Z,1968
2018-04-13T07:21:01.497Z,2224
2018-04-13T07:22:16.477Z,2332
2018-04-13T07:23:01.802Z,2380
2018-04-13T07:24:01.565Z,2540
2018-04-13T07:25:01.767Z,2596
2018-04-13T07:26:01.868Z,2484
2018-04-13T07:27:01.371Z,2448
2018-04-13T07:28:16.314Z,2444
2018-04-13T07:29:01.937Z,2408
2018-04-13T07:30:01.970Z,2164
2018-04-13T07:31:01.982Z,1844
2018-04-13T07:32:17.065Z,1512
2018-04-13T07:33:01.251Z,1388
2018-04-13T07:34:17.415Z,1252
2018-04-13T07:35:02.640Z,1200
2018-04-13T07:36:02.129Z,1184
2018-04-13T07:37:03.104Z,1276
2018-04-13T07:38:01.891Z,1432
2018-04-13T07:39:01.907Z,1532
2018-04-13T07:40:02.145Z,1596
2018-04-13T07:41:01.580Z,1628
2018-04-13T07:42:01.718Z,1560
2018-04-13T07:43:01.996Z,1408
2018-04-13T07:44:02.278Z,1240
2018-04-13T07:45:02.135Z,1100
2018-04-13T07:46:02.772Z,992
2018-04-13T07:47:02.090Z,892
2018-04-13T07:48:02.382Z,784
2018-04-13T07:50:31.737Z,708
2018-04-13T07:51:02.187Z,680
2018-04-13T07:52:02.662Z,640
2018-04-13T07:53:02.490Z,728
2018-04-13T07:54:17.173Z,992
2018-04-13T07:55:02.542Z,1112
2018-04-13T07:56:02.556Z,1252
2018-04-13T07:57:02.074Z,1496
2018-04-13T07:58:02.800Z,1936
2018-04-13T07:59:03.721Z,2428
2018-04-13T08:00:17.966Z,2964
2018-04-13T08:03:02.807Z,4164
2018-04-13T08:04:02.479Z,4360
2018-04-13T08:05:17.161Z,4556
2018-04-13T08:06:02.528Z,4584
2018-04-13T08:07:02.547Z,4368
2018-04-13T08:08:02.829Z,3988
2018-04-13T08:09:02.855Z,3524
2018-04-13T08:10:02.891Z,3432
2018-04-13T08:11:02.378Z,3780
2018-04-13T08:12:02.932Z,4252
2018-04-13T08:13:02.944Z,4464
2018-04-13T08:15:02.729Z,4136
2018-04-13T08:16:02.755Z,3892
2018-04-13T08:20:03.100Z,4380
2018-04-13T08:21:03.130Z,4408
2018-04-13T08:22:03.152Z,4360
2018-04-13T08:23:03.173Z,4212
2018-04-13T08:24:17.856Z,3904
2018-04-13T08:25:02.954Z,4244
2018-04-13T08:26:02.984Z,4288
2018-04-13T08:27:03.005Z,3704
2018-04-13T08:28:17.943Z,3548
2018-04-13T08:29:02.844Z,3640
2018-04-13T08:30:03.342Z,3808
2018-04-13T08:31:18.038Z,3780
2018-04-13T08:32:03.455Z,3716
2018-04-13T08:33:03.197Z,3600
2018-04-13T08:34:03.231Z,3408
2018-04-13T08:35:02.927Z,3452
2018-04-13T08:36:17.872Z,4028
2018-04-13T08:37:32.811Z,4968
2018-04-13T08:38:03.530Z,5328
2018-04-13T08:39:03.016Z,5752
2018-04-13T08:40:03.040Z,5772
2018-04-13T08:41:03.374Z,5316
2018-04-13T08:42:03.346Z,4820
2018-04-13T08:43:03.390Z,4648
2018-04-13T08:44:18.317Z,4756
2018-04-13T08:45:03.153Z,4584
2018-04-13T08:46:03.747Z,4312
2018-04-13T08:47:03.572Z,4136
2018-04-13T08:48:03.219Z,3756
2018-04-13T08:49:04.524Z,3440
2018-04-13T08:50:03.529Z,3388
2018-04-13T08:51:03.550Z,3696
2018-04-13T08:52:03.317Z,3908
2018-04-13T08:54:03.761Z,4132
2018-04-13T08:55:03.815Z,4052
2018-04-13T08:56:03.144Z,4120
2018-04-13T08:57:03.170Z,4284
2018-04-13T08:59:03.990Z,3696
2018-04-13T09:00:03.761Z,3264
2018-04-13T09:01:04.174Z,3172
2018-04-13T09:02:18.459Z,3588
2018-04-13T09:03:03.671Z,4056
2018-04-13T09:04:04.115Z,4872
2018-04-13T09:05:03.873Z,5876
2018-04-13T09:06:03.906Z,7092
2018-04-13T09:07:03.661Z,8176
2018-04-13T09:08:03.682Z,8652
2018-04-13T09:10:04.244Z,7896
2018-04-13T09:11:04.323Z,7512
2018-04-13T09:12:04.045Z,7488
2018-04-13T09:13:03.888Z,7824
2018-04-13T09:14:04.343Z,8508
2018-04-13T09:15:04.108Z,8616
2018-04-13T09:16:04.126Z,7940
2018-04-13T09:17:04.418Z,7304
2018-04-13T09:18:04.184Z,7016
2018-04-13T09:19:04.195Z,7108
2018-04-13T09:21:03.982Z,7732
2018-04-13T09:22:19.182Z,8048
2018-04-13T09:23:04.295Z,8076
2018-04-13T09:24:04.575Z,8060
2018-04-13T09:26:04.102Z,8020
2018-04-13T09:27:04.382Z,7936
2018-04-13T09:28:04.185Z,7828
2018-04-13T09:29:04.737Z,7632
2018-04-13T09:30:04.733Z,7300
2018-04-13T09:31:04.745Z,7052
2018-04-13T09:32:19.425Z,6820
2018-04-13T09:33:19.178Z,6856
2018-04-13T09:34:04.286Z,6984
2018-04-13T09:35:04.568Z,7088
2018-04-13T09:36:04.074Z,7076
2018-04-13T09:37:04.873Z,7068
2018-04-13T09:38:19.557Z,7028
2018-04-13T09:39:04.409Z,7044
2018-04-13T09:41:04.974Z,7672
2018-04-13T09:42:05.003Z,8256
2018-04-13T09:43:04.497Z,8684
2018-04-13T09:44:04.898Z,8504
2018-04-13T09:45:19.465Z,7480
2018-04-13T09:46:05.122Z,6796
2018-04-13T09:47:19.769Z,6692
2018-04-13T09:48:04.619Z,7228
2018-04-13T09:49:19.817Z,8184
2018-04-13T09:50:04.970Z,8260
2018-04-13T09:51:04.953Z,8196
2018-04-13T09:52:04.708Z,7760
2018-04-13T09:53:04.998Z,7196
2018-04-13T09:54:05.276Z,6664
2018-04-13T09:55:05.049Z,5916
2018-04-13T09:56:05.063Z,5344
2018-04-13T09:57:05.356Z,5276
2018-04-13T09:58:19.768Z,5672
2018-04-13T09:59:05.397Z,6024
2018-04-13T10:00:04.897Z,6284
2018-04-13T10:01:05.447Z,6040
2018-04-13T10:03:20.154Z,5220
2018-04-13T10:04:20.169Z,5092
2018-04-13T10:05:05.535Z,5012
2018-04-13T10:06:19.958Z,4488
2018-04-13T10:08:05.703Z,4284
2018-04-13T10:09:05.110Z,4384
2018-04-13T10:10:20.313Z,4704
2018-04-13T10:11:05.681Z,4720
2018-04-13T10:12:35.024Z,4048
2018-04-13T10:13:05.729Z,3840
2018-04-13T10:14:05.491Z,3676
2018-04-13T10:15:05.512Z,3632
2018-04-13T10:16:05.280Z,3472
2018-04-13T10:17:05.819Z,3484
2018-04-13T10:18:05.326Z,3852
2018-04-13T10:19:05.866Z,4428
2018-04-13T10:20:05.731Z,4884
2018-04-13T10:21:20.313Z,5632
2018-04-13T10:22:05.421Z,6040
2018-04-13T10:23:05.698Z,6476
2018-04-13T10:24:05.722Z,6772
2018-04-13T10:26:05.772Z,8088
2018-04-13T10:27:05.533Z,8808
2018-04-13T10:28:35.395Z,8716
2018-04-13T10:29:20.500Z,8228
2018-04-13T10:31:05.640Z,6964
2018-04-13T10:32:06.183Z,6328
2018-04-13T10:33:05.940Z,5908
2018-04-13T10:34:05.976Z,5688
2018-04-13T10:35:05.983Z,5524
2018-04-13T10:36:06.008Z,5320
2018-04-13T10:37:20.951Z,5272
2018-04-13T10:38:06.314Z,5512
2018-04-13T10:39:06.080Z,5948
2018-04-13T10:40:06.362Z,6296
2018-04-13T10:41:06.132Z,6568
2018-04-13T10:42:05.887Z,6732
2018-04-13T10:43:06.429Z,6732
2018-04-13T10:44:21.118Z,7020
2018-04-13T10:45:06.215Z,7444
2018-04-13T10:46:06.257Z,8108
2018-04-13T10:47:06.530Z,8060
2018-04-13T10:48:06.296Z,7416
2018-04-13T10:49:21.392Z,6732
2018-04-13T10:50:06.340Z,6332
2018-04-13T10:51:06.638Z,5992
2018-04-13T10:52:21.297Z,5704
2018-04-13T10:53:06.403Z,5492
2018-04-13T10:54:06.688Z,5168
2018-04-13T10:55:06.722Z,4672
2018-04-13T10:56:21.144Z,4160
2018-04-13T10:57:06.568Z,3848
2018-04-13T10:58:06.791Z,3572
2018-04-13T10:59:06.814Z,3440
2018-04-13T11:00:36.150Z,3496
2018-04-13T11:01:06.907Z,3564
2018-04-13T11:02:06.624Z,3900
2018-04-13T11:03:06.651Z,4108
2018-04-13T11:04:06.681Z,4000
2018-04-13T11:05:06.687Z,3900
2018-04-13T11:06:06.713Z,3988
2018-04-13T11:07:06.474Z,4256
2018-04-13T11:08:07.022Z,4636
2018-04-13T11:09:21.703Z,5404
2018-04-13T11:10:06.807Z,6012
2018-04-13T11:11:06.824Z,7032
2018-04-13T11:12:06.855Z,8132
2018-04-13T11:13:06.618Z,9096
2018-04-13T11:14:21.558Z,10340
2018-04-13T11:16:06.955Z,11696
2018-04-13T11:17:06.705Z,12148
2018-04-13T11:18:07.248Z,12604
2018-04-13T11:19:07.016Z,12988
2018-04-13T11:20:07.295Z,13316
2018-04-13T11:21:07.066Z,13152
2018-04-13T11:22:07.452Z,12832
2018-04-13T11:23:07.107Z,12556
2018-04-13T11:24:22.045Z,12436
2018-04-13T11:25:21.817Z,12580
2018-04-13T11:26:07.181Z,12668
2018-04-13T11:27:07.469Z,12804
2018-04-13T11:28:21.631Z,12636
2018-04-13T11:29:06.987Z,12440
2018-04-13T11:30:07.286Z,12284
2018-04-13T11:31:07.041Z,12096
2018-04-13T11:32:07.320Z,11744
2018-04-13T11:33:07.350Z,11248
2018-04-13T11:34:07.633Z,10744
2018-04-13T11:35:07.400Z,10452
2018-04-13T11:36:07.415Z,10044
2018-04-13T11:37:07.181Z,9852
2018-04-13T11:38:07.729Z,10064
2018-04-13T11:39:22.411Z,10680
2018-04-13T11:40:07.771Z,11072
2018-04-13T11:41:07.794Z,11652
2018-04-13T11:42:07.820Z,12068
2018-04-13T11:43:07.582Z,12124
2018-04-13T11:44:22.523Z,11780
2018-04-13T11:45:07.647Z,11440
2018-04-13T11:46:07.134Z,11348
2018-04-13T11:47:37.254Z,12084
2018-04-13T11:48:07.959Z,12460
2018-04-13T11:49:07.987Z,13216
2018-04-13T11:50:08.039Z,13708
2018-04-13T11:51:22.693Z,14044
2018-04-13T11:52:08.060Z,14116
2018-04-13T11:53:22.743Z,13936
2018-04-13T11:54:08.111Z,13736
2018-04-13T11:56:07.902Z,11904
2018-04-13T11:57:08.176Z,10684
2018-04-13T11:58:08.208Z,9580
2018-04-13T11:59:08.227Z,8324
2018-04-13T12:01:08.279Z,7204
2018-04-13T12:02:07.781Z,7876
2018-04-13T12:03:37.644Z,9336
2018-04-13T12:04:07.832Z,9660
2018-04-13T12:05:07.856Z,10160
2018-04-13T12:06:08.138Z,10424
2018-04-13T12:07:22.565Z,11196
2018-04-13T12:08:08.199Z,11656
2018-04-13T12:09:08.211Z,12008
2018-04-13T12:10:07.976Z,12340
2018-04-13T12:11:08.526Z,12624
2018-04-13T12:12:08.541Z,12728
2018-04-13T12:13:08.319Z,12800
2018-04-13T12:14:08.339Z,13020
2018-04-13T12:15:08.622Z,12724
2018-04-13T12:16:23.302Z,12204
2018-04-13T12:17:08.665Z,11996
2018-04-13T12:18:08.171Z,11732
2018-04-13T12:19:23.377Z,11428
2018-04-13T12:20:08.487Z,11296
2018-04-13T12:22:08.534Z,11012
2018-04-13T12:23:08.295Z,10880
2018-04-13T12:24:08.840Z,10856
2018-04-13T12:25:08.347Z,10920
2018-04-13T12:26:08.372Z,11036
2018-04-13T12:27:08.654Z,11068
2018-04-13T12:28:08.948Z,10988
2018-04-13T12:29:23.364Z,10756
2018-04-13T12:30:08.974Z,10584
2018-04-13T12:31:23.555Z,10328
2018-04-13T12:32:09.038Z,10108
2018-04-13T12:33:08.799Z,9740
2018-04-13T12:34:08.828Z,9244
2018-04-13T12:35:23.507Z,8416
2018-04-13T12:36:09.141Z,8080
2018-04-13T12:37:08.638Z,8156
2018-04-13T12:38:08.403Z,8440
2018-04-13T12:39:08.948Z,8840
2018-04-13T12:41:09.270Z,9332
2018-04-13T12:42:08.503Z,9352
2018-04-13T12:43:23.969Z,9560
2018-04-13T12:44:23.994Z,9692
2018-04-13T12:45:09.093Z,9668
2018-04-13T12:46:08.870Z,9604
2018-04-13T12:47:09.141Z,9720
2018-04-13T12:48:09.435Z,10172
2018-04-13T12:49:09.301Z,10644
2018-04-13T12:50:24.140Z,10972
2018-04-13T12:51:09.247Z,11128
2018-04-13T12:52:09.528Z,10924
2018-04-13T12:53:09.373Z,10844
2018-04-13T12:54:09.816Z,10884
2018-04-13T12:56:24.388Z,11268
2018-04-13T12:57:09.433Z,11524
2018-04-13T12:58:09.414Z,11408
2018-04-13T12:59:09.698Z,11180
2018-04-13T13:00:09.495Z,10748
2018-04-13T13:01:09.230Z,11696
2018-04-13T13:02:24.433Z,10792
2018-04-13T13:03:09.536Z,11532
2018-04-13T13:04:09.559Z,10752
2018-04-13T13:05:09.613Z,10704
2018-04-13T13:06:09.872Z,10872
2018-04-13T13:07:09.634Z,10960
2018-04-13T13:09:10.046Z,10860
2018-04-13T13:10:09.723Z,10728
2018-04-13T13:11:09.999Z,10572
2018-04-13T13:12:10.018Z,10484
2018-04-13T13:13:10.041Z,10484
2018-04-13T13:14:24.729Z,10456
2018-04-13T13:15:10.104Z,10348
2018-04-13T13:16:10.221Z,10264
2018-04-13T13:17:10.147Z,10276
2018-04-13T13:18:10.168Z,10380
2018-04-13T13:19:24.851Z,10484
2018-04-13T13:20:09.959Z,10376
2018-04-13T13:21:10.248Z,10612
2018-04-13T13:22:39.637Z,9780
2018-04-13T13:23:10.303Z,9704
2018-04-13T13:24:09.799Z,9512
2018-04-13T13:27:09.873Z,8904
2018-04-13T13:28:10.157Z,8768
2018-04-13T13:29:25.104Z,8796
2018-04-13T13:30:10.474Z,8984
2018-04-13T13:31:10.230Z,9192
2018-04-13T13:32:10.515Z,9384
2018-04-13T13:33:10.291Z,9548
2018-04-13T13:34:10.317Z,9688
2018-04-13T13:36:25.018Z,10100
2018-04-13T13:37:10.125Z,10116
2018-04-13T13:38:25.321Z,10508
2018-04-13T13:39:10.430Z,10572
2018-04-13T13:41:10.481Z,10596
2018-04-13T13:42:10.245Z,10460
2018-04-13T13:43:10.789Z,10420
2018-04-13T13:44:10.554Z,10324
2018-04-13T13:45:10.614Z,10172
2018-04-13T13:46:25.522Z,10032
2018-04-13T13:47:25.550Z,9932
2018-04-13T13:48:10.922Z,9884
2018-04-13T13:49:25.606Z,9856
2018-04-13T13:50:10.960Z,9732
2018-04-13T13:51:10.995Z,9820
2018-04-13T13:52:10.754Z,10036
2018-04-13T13:53:11.037Z,9868
2018-04-13T13:54:40.385Z,10236
2018-04-13T13:55:11.091Z,9864
2018-04-13T13:56:10.855Z,10260
2018-04-13T13:57:25.280Z,10748
2018-04-13T13:58:11.165Z,10772
2018-04-13T13:59:11.199Z,10500
2018-04-13T14:00:25.872Z,10616
2018-04-13T14:01:25.897Z,11292
2018-04-13T14:02:25.661Z,11048
2018-04-13T14:03:11.285Z,10812
2018-04-13T14:04:11.231Z,10412
2018-04-13T14:05:11.082Z,10032
2018-04-13T14:06:11.106Z,9944
2018-04-13T14:07:11.137Z,9912
2018-04-13T14:08:11.425Z,9788
2018-04-13T14:09:11.438Z,9908
2018-04-13T14:10:40.782Z,10172
2018-04-13T14:11:11.495Z,10336
2018-04-13T14:12:11.520Z,10016
2018-04-13T14:13:11.019Z,10844
2018-04-13T14:14:11.304Z,11000
2018-04-13T14:15:11.597Z,11060
2018-04-13T14:16:26.020Z,10860
2018-04-13T14:17:11.639Z,10684
2018-04-13T14:18:26.067Z,10632
2018-04-13T14:19:11.690Z,10504
2018-04-13T14:20:11.197Z,10084
2018-04-13T14:21:11.738Z,9828
2018-04-13T14:22:11.511Z,10284
2018-04-13T14:23:26.452Z,9492
2018-04-13T14:24:11.819Z,9620
2018-04-13T14:25:41.162Z,9944
2018-04-13T14:26:11.870Z,9900
2018-04-13T14:27:11.892Z,9712
2018-04-13T14:28:11.999Z,9488
2018-04-13T14:29:11.942Z,9208
2018-04-13T14:30:11.983Z,9080
2018-04-13T14:31:11.998Z,9024
2018-04-13T14:32:11.760Z,9104
2018-04-13T14:33:12.050Z,9228
2018-04-13T14:34:12.069Z,9036
2018-04-13T14:35:12.106Z,8644
2018-04-13T14:36:11.871Z,8472
2018-04-13T14:37:11.886Z,8460